sensor_id;sensor_type;location;lat;lon;timestamp;P1;durP1;ratioP1;P2;durP2;ratioP2
25581;SDS011;13462;50.764;4.332;2022-10-17T00:01:05;24.75;;;15.18;;
25581;SDS011;13462;50.764;4.332;2022-10-17T00:03:32;18.63;;;14.13;;
25581;SDS011;13462;50.764;4.332;2022-10-17T00:05:58;19.50;;;14.90;;
25581;SDS011;13462;50.764;4.332;2022-10-17T00:08:28;21.35;;;13.82;;
25581;SDS011;13462;50.764;4.332;2022-10-17T00:10:58;22.05;;;14.80;;
25581;SDS011;13462;50.764;4.332;2022-10-17T00:13:25;21.10;;;14.38;;
25581;SDS011;13462;50.764;4.332;2022-10-17T00:15:51;19.98;;;14.27;;
25581;SDS011;13462;50.764;4.332;2022-10-17T00:18:17;20.08;;;14.27;;
25581;SDS011;13462;50.764;4.332;2022-10-17T00:20:43;24.27;;;14.38;;
25581;SDS011;13462;50.764;4.332;2022-10-17T00:23:08;21.25;;;14.73;;
25581;SDS011;13462;50.764;4.332;2022-10-17T00:25:34;19.38;;;14.80;;
25581;SDS011;13462;50.764;4.332;2022-10-17T00:28:00;19.88;;;13.55;;
25581;SDS011;13462;50.764;4.332;2022-10-17T00:30:27;21.95;;;14.45;;
25581;SDS011;13462;50.764;4.332;2022-10-17T00:32:52;19.17;;;13.95;;
25581;SDS011;13462;50.764;4.332;2022-10-17T00:35:18;23.33;;;14.43;;
25581;SDS011;13462;50.764;4.332;2022-10-17T00:37:43;22.13;;;13.82;;
25581;SDS011;13462;50.764;4.332;2022-10-17T00:40:09;16.83;;;13.50;;
25581;SDS011;13462;50.764;4.332;2022-10-17T00:42:35;22.08;;;14.27;;
25581;SDS011;13462;50.764;4.332;2022-10-17T00:45:20;20.50;;;14.50;;
25581;SDS011;13462;50.764;4.332;2022-10-17T00:47:55;20.40;;;13.48;;
25581;SDS011;13462;50.764;4.332;2022-10-17T00:50:25;24.88;;;14.18;;
25581;SDS011;13462;50.764;4.332;2022-10-17T00:52:51;18.45;;;13.15;;
25581;SDS011;13462;50.764;4.332;2022-10-17T00:55:26;23.95;;;14.32;;
25581;SDS011;13462;50.764;4.332;2022-10-17T00:57:55;20.50;;;13.13;;
25581;SDS011;13462;50.764;4.332;2022-10-17T01:00:24;19.20;;;13.77;;
25581;SDS011;13462;50.764;4.332;2022-10-17T01:02:50;24.70;;;13.43;;
25581;SDS011;13462;50.764;4.332;2022-10-17T01:05:15;20.55;;;13.35;;
25581;SDS011;13462;50.764;4.332;2022-10-17T01:07:42;24.35;;;13.05;;
25581;SDS011;13462;50.764;4.332;2022-10-17T01:10:10;18.15;;;12.40;;
25581;SDS011;13462;50.764;4.332;2022-10-17T01:26:04;20.77;;;12.23;;
25581;SDS011;13462;50.764;4.332;2022-10-17T01:34:12;19.83;;;11.68;;
25581;SDS011;13462;50.764;4.332;2022-10-17T01:39:43;16.23;;;11.18;;
25581;SDS011;13462;50.764;4.332;2022-10-17T01:47:48;14.20;;;10.18;;
25581;SDS011;13462;50.764;4.332;2022-10-17T01:50:21;15.30;;;11.35;;
25581;SDS011;13462;50.764;4.332;2022-10-17T01:52:52;18.40;;;11.27;;
25581;SDS011;13462;50.764;4.332;2022-10-17T01:55:25;18.35;;;11.43;;
25581;SDS011;13462;50.764;4.332;2022-10-17T01:58:09;18.80;;;12.43;;
25581;SDS011;13462;50.764;4.332;2022-10-17T02:00:38;17.55;;;11.20;;
25581;SDS011;13462;50.764;4.332;2022-10-17T02:03:08;15.02;;;10.27;;
25581;SDS011;13462;50.764;4.332;2022-10-17T02:05:36;14.80;;;10.40;;
25581;SDS011;13462;50.764;4.332;2022-10-17T02:08:04;15.27;;;9.85;;
25581;SDS011;13462;50.764;4.332;2022-10-17T02:10:49;15.88;;;10.38;;
25581;SDS011;13462;50.764;4.332;2022-10-17T02:21:47;15.02;;;10.02;;
25581;SDS011;13462;50.764;4.332;2022-10-17T02:24:32;11.23;;;8.77;;
25581;SDS011;13462;50.764;4.332;2022-10-17T02:27:11;15.13;;;9.93;;
25581;SDS011;13462;50.764;4.332;2022-10-17T02:29:42;19.92;;;10.15;;
25581;SDS011;13462;50.764;4.332;2022-10-17T02:32:43;12.23;;;9.23;;
25581;SDS011;13462;50.764;4.332;2022-10-17T02:35:17;18.50;;;9.38;;
25581;SDS011;13462;50.764;4.332;2022-10-17T02:37:44;14.57;;;9.38;;
25581;SDS011;13462;50.764;4.332;2022-10-17T02:40:12;12.00;;;9.23;;
25581;SDS011;13462;50.764;4.332;2022-10-17T02:42:39;12.68;;;8.65;;
25581;SDS011;13462;50.764;4.332;2022-10-17T02:45:09;15.05;;;9.60;;
25581;SDS011;13462;50.764;4.332;2022-10-17T02:47:39;14.43;;;9.82;;
25581;SDS011;13462;50.764;4.332;2022-10-17T02:50:21;13.43;;;9.20;;
25581;SDS011;13462;50.764;4.332;2022-10-17T02:53:04;14.80;;;9.32;;
25581;SDS011;13462;50.764;4.332;2022-10-17T02:55:39;14.10;;;9.35;;
25581;SDS011;13462;50.764;4.332;2022-10-17T02:58:21;14.85;;;8.82;;
25581;SDS011;13462;50.764;4.332;2022-10-17T03:00:51;13.55;;;9.23;;
25581;SDS011;13462;50.764;4.332;2022-10-17T03:03:24;13.90;;;9.27;;
25581;SDS011;13462;50.764;4.332;2022-10-17T03:05:52;13.57;;;9.73;;
25581;SDS011;13462;50.764;4.332;2022-10-17T03:08:18;13.52;;;9.48;;
25581;SDS011;13462;50.764;4.332;2022-10-17T03:10:44;12.98;;;9.85;;
25581;SDS011;13462;50.764;4.332;2022-10-17T03:13:10;11.27;;;8.88;;
25581;SDS011;13462;50.764;4.332;2022-10-17T03:15:35;13.93;;;8.98;;
25581;SDS011;13462;50.764;4.332;2022-10-17T03:18:01;11.30;;;9.23;;
25581;SDS011;13462;50.764;4.332;2022-10-17T03:20:26;11.90;;;9.30;;
25581;SDS011;13462;50.764;4.332;2022-10-17T03:22:52;17.08;;;9.45;;
25581;SDS011;13462;50.764;4.332;2022-10-17T03:25:17;13.13;;;8.88;;
25581;SDS011;13462;50.764;4.332;2022-10-17T03:27:43;12.57;;;9.63;;
25581;SDS011;13462;50.764;4.332;2022-10-17T03:30:08;12.70;;;8.52;;
25581;SDS011;13462;50.764;4.332;2022-10-17T03:32:34;13.23;;;9.00;;
25581;SDS011;13462;50.764;4.332;2022-10-17T03:35:00;10.57;;;8.90;;
25581;SDS011;13462;50.764;4.332;2022-10-17T03:37:26;13.15;;;9.15;;
25581;SDS011;13462;50.764;4.332;2022-10-17T03:39:51;12.40;;;9.27;;
25581;SDS011;13462;50.764;4.332;2022-10-17T03:42:17;14.77;;;10.35;;
25581;SDS011;13462;50.764;4.332;2022-10-17T03:44:43;19.88;;;10.23;;
25581;SDS011;13462;50.764;4.332;2022-10-17T03:47:08;14.25;;;10.02;;
25581;SDS011;13462;50.764;4.332;2022-10-17T03:49:34;15.60;;;9.10;;
25581;SDS011;13462;50.764;4.332;2022-10-17T03:51:59;13.45;;;9.13;;
25581;SDS011;13462;50.764;4.332;2022-10-17T03:54:25;11.18;;;9.00;;
25581;SDS011;13462;50.764;4.332;2022-10-17T03:56:50;10.63;;;9.20;;
25581;SDS011;13462;50.764;4.332;2022-10-17T03:59:16;12.07;;;9.20;;
25581;SDS011;13462;50.764;4.332;2022-10-17T04:01:42;13.93;;;9.13;;
25581;SDS011;13462;50.764;4.332;2022-10-17T04:04:08;13.35;;;9.13;;
25581;SDS011;13462;50.764;4.332;2022-10-17T04:06:34;17.45;;;9.18;;
25581;SDS011;13462;50.764;4.332;2022-10-17T04:09:00;13.15;;;8.63;;
25581;SDS011;13462;50.764;4.332;2022-10-17T04:11:26;9.98;;;8.05;;
25581;SDS011;13462;50.764;4.332;2022-10-17T04:13:53;14.30;;;9.30;;
25581;SDS011;13462;50.764;4.332;2022-10-17T04:16:20;14.77;;;8.90;;
25581;SDS011;13462;50.764;4.332;2022-10-17T04:18:46;12.27;;;9.35;;
25581;SDS011;13462;50.764;4.332;2022-10-17T04:21:12;12.38;;;8.57;;
25581;SDS011;13462;50.764;4.332;2022-10-17T04:23:38;19.20;;;9.00;;
25581;SDS011;13462;50.764;4.332;2022-10-17T04:26:03;9.20;;;7.97;;
25581;SDS011;13462;50.764;4.332;2022-10-17T04:28:30;13.82;;;9.10;;
25581;SDS011;13462;50.764;4.332;2022-10-17T04:33:22;11.48;;;8.27;;
25581;SDS011;13462;50.764;4.332;2022-10-17T04:38:44;15.30;;;8.55;;
25581;SDS011;13462;50.764;4.332;2022-10-17T04:41:10;12.43;;;7.63;;
25581;SDS011;13462;50.764;4.332;2022-10-17T04:43:37;18.00;;;9.40;;
25581;SDS011;13462;50.764;4.332;2022-10-17T04:46:05;16.45;;;9.10;;
25581;SDS011;13462;50.764;4.332;2022-10-17T04:48:32;14.10;;;9.90;;
25581;SDS011;13462;50.764;4.332;2022-10-17T04:50:59;16.95;;;11.38;;
25581;SDS011;13462;50.764;4.332;2022-10-17T04:53:26;15.88;;;11.73;;
25581;SDS011;13462;50.764;4.332;2022-10-17T04:55:52;14.98;;;12.35;;
25581;SDS011;13462;50.764;4.332;2022-10-17T04:58:18;21.13;;;13.27;;
25581;SDS011;13462;50.764;4.332;2022-10-17T05:00:44;24.55;;;13.43;;
25581;SDS011;13462;50.764;4.332;2022-10-17T05:03:10;22.02;;;13.75;;
25581;SDS011;13462;50.764;4.332;2022-10-17T05:05:36;20.10;;;13.45;;
25581;SDS011;13462;50.764;4.332;2022-10-17T05:08:03;15.82;;;13.02;;
25581;SDS011;13462;50.764;4.332;2022-10-17T05:10:29;19.75;;;12.05;;
25581;SDS011;13462;50.764;4.332;2022-10-17T05:12:59;19.88;;;12.20;;
25581;SDS011;13462;50.764;4.332;2022-10-17T05:15:25;14.35;;;10.43;;
25581;SDS011;13462;50.764;4.332;2022-10-17T05:17:53;16.33;;;10.65;;
25581;SDS011;13462;50.764;4.332;2022-10-17T05:20:19;18.35;;;10.00;;
25581;SDS011;13462;50.764;4.332;2022-10-17T05:22:45;10.85;;;8.73;;
25581;SDS011;13462;50.764;4.332;2022-10-17T05:25:11;14.40;;;8.18;;
25581;SDS011;13462;50.764;4.332;2022-10-17T05:27:36;11.07;;;8.18;;
25581;SDS011;13462;50.764;4.332;2022-10-17T05:30:02;13.88;;;9.05;;
25581;SDS011;13462;50.764;4.332;2022-10-17T05:32:28;10.38;;;8.27;;
25581;SDS011;13462;50.764;4.332;2022-10-17T05:34:54;10.43;;;8.02;;
25581;SDS011;13462;50.764;4.332;2022-10-17T05:37:19;10.45;;;8.57;;
25581;SDS011;13462;50.764;4.332;2022-10-17T05:39:45;13.20;;;8.50;;
25581;SDS011;13462;50.764;4.332;2022-10-17T05:42:11;12.13;;;7.63;;
25581;SDS011;13462;50.764;4.332;2022-10-17T05:44:36;11.15;;;8.80;;
25581;SDS011;13462;50.764;4.332;2022-10-17T05:47:03;11.13;;;8.45;;
25581;SDS011;13462;50.764;4.332;2022-10-17T05:49:29;13.02;;;7.90;;
25581;SDS011;13462;50.764;4.332;2022-10-17T05:51:54;9.57;;;7.50;;
25581;SDS011;13462;50.764;4.332;2022-10-17T05:54:20;13.43;;;8.18;;
25581;SDS011;13462;50.764;4.332;2022-10-17T05:56:50;9.18;;;7.88;;
25581;SDS011;13462;50.764;4.332;2022-10-17T05:59:16;8.52;;;7.15;;
25581;SDS011;13462;50.764;4.332;2022-10-17T06:01:41;12.13;;;7.50;;
25581;SDS011;13462;50.764;4.332;2022-10-17T06:04:07;13.00;;;7.22;;
25581;SDS011;13462;50.764;4.332;2022-10-17T06:06:34;25.52;;;9.38;;
25581;SDS011;13462;50.764;4.332;2022-10-17T06:09:00;10.27;;;7.13;;
25581;SDS011;13462;50.764;4.332;2022-10-17T06:11:26;9.35;;;7.35;;
25581;SDS011;13462;50.764;4.332;2022-10-17T06:13:52;10.82;;;7.03;;
25581;SDS011;13462;50.764;4.332;2022-10-17T06:16:17;14.82;;;7.68;;
25581;SDS011;13462;50.764;4.332;2022-10-17T06:18:43;14.25;;;7.47;;
25581;SDS011;13462;50.764;4.332;2022-10-17T06:21:09;15.65;;;8.43;;
25581;SDS011;13462;50.764;4.332;2022-10-17T06:23:36;11.05;;;7.90;;
25581;SDS011;13462;50.764;4.332;2022-10-17T06:26:02;9.95;;;7.57;;
25581;SDS011;13462;50.764;4.332;2022-10-17T06:28:29;12.00;;;7.68;;
25581;SDS011;13462;50.764;4.332;2022-10-17T06:30:55;11.98;;;8.02;;
25581;SDS011;13462;50.764;4.332;2022-10-17T06:33:20;11.85;;;7.53;;
25581;SDS011;13462;50.764;4.332;2022-10-17T06:35:51;12.45;;;7.10;;
25581;SDS011;13462;50.764;4.332;2022-10-17T06:38:17;9.23;;;7.30;;
25581;SDS011;13462;50.764;4.332;2022-10-17T06:40:42;10.88;;;6.57;;
25581;SDS011;13462;50.764;4.332;2022-10-17T06:43:08;12.98;;;6.95;;
25581;SDS011;13462;50.764;4.332;2022-10-17T06:45:34;9.30;;;7.13;;
25581;SDS011;13462;50.764;4.332;2022-10-17T06:48:01;9.70;;;5.97;;
25581;SDS011;13462;50.764;4.332;2022-10-17T06:50:27;10.25;;;7.03;;
25581;SDS011;13462;50.764;4.332;2022-10-17T06:52:53;9.95;;;6.95;;
25581;SDS011;13462;50.764;4.332;2022-10-17T06:55:18;11.60;;;7.70;;
25581;SDS011;13462;50.764;4.332;2022-10-17T06:57:44;10.02;;;6.03;;
25581;SDS011;13462;50.764;4.332;2022-10-17T07:00:09;8.15;;;5.93;;
25581;SDS011;13462;50.764;4.332;2022-10-17T07:02:36;12.15;;;6.00;;
25581;SDS011;13462;50.764;4.332;2022-10-17T07:05:02;9.38;;;5.95;;
25581;SDS011;13462;50.764;4.332;2022-10-17T07:07:29;7.47;;;5.65;;
25581;SDS011;13462;50.764;4.332;2022-10-17T07:09:56;11.48;;;6.32;;
25581;SDS011;13462;50.764;4.332;2022-10-17T07:12:22;13.50;;;6.30;;
25581;SDS011;13462;50.764;4.332;2022-10-17T07:14:48;10.27;;;6.55;;
25581;SDS011;13462;50.764;4.332;2022-10-17T07:17:14;11.30;;;6.72;;
25581;SDS011;13462;50.764;4.332;2022-10-17T07:19:40;10.85;;;6.68;;
25581;SDS011;13462;50.764;4.332;2022-10-17T07:22:07;10.10;;;6.55;;
25581;SDS011;13462;50.764;4.332;2022-10-17T07:24:33;10.27;;;6.57;;
25581;SDS011;13462;50.764;4.332;2022-10-17T07:26:59;10.02;;;7.10;;
25581;SDS011;13462;50.764;4.332;2022-10-17T07:29:25;12.73;;;6.97;;
25581;SDS011;13462;50.764;4.332;2022-10-17T07:31:51;11.00;;;7.57;;
25581;SDS011;13462;50.764;4.332;2022-10-17T07:34:17;10.50;;;7.80;;
25581;SDS011;13462;50.764;4.332;2022-10-17T07:36:42;14.25;;;7.93;;
25581;SDS011;13462;50.764;4.332;2022-10-17T07:39:08;10.60;;;8.02;;
25581;SDS011;13462;50.764;4.332;2022-10-17T07:41:34;16.95;;;8.95;;
25581;SDS011;13462;50.764;4.332;2022-10-17T07:44:00;12.65;;;7.50;;
25581;SDS011;13462;50.764;4.332;2022-10-17T07:46:25;13.02;;;8.50;;
25581;SDS011;13462;50.764;4.332;2022-10-17T07:48:51;13.93;;;8.25;;
25581;SDS011;13462;50.764;4.332;2022-10-17T07:51:16;11.40;;;8.93;;
25581;SDS011;13462;50.764;4.332;2022-10-17T07:53:44;14.63;;;9.27;;
25581;SDS011;13462;50.764;4.332;2022-10-17T07:56:09;14.77;;;8.98;;
25581;SDS011;13462;50.764;4.332;2022-10-17T07:58:36;14.18;;;8.43;;
25581;SDS011;13462;50.764;4.332;2022-10-17T08:01:02;11.35;;;7.63;;
25581;SDS011;13462;50.764;4.332;2022-10-17T08:03:29;13.05;;;8.68;;
25581;SDS011;13462;50.764;4.332;2022-10-17T08:05:58;15.30;;;9.23;;
25581;SDS011;13462;50.764;4.332;2022-10-17T08:08:25;16.27;;;8.65;;
25581;SDS011;13462;50.764;4.332;2022-10-17T08:10:51;13.38;;;9.40;;
25581;SDS011;13462;50.764;4.332;2022-10-17T08:13:18;15.63;;;9.30;;
25581;SDS011;13462;50.764;4.332;2022-10-17T08:15:44;12.93;;;9.02;;
25581;SDS011;13462;50.764;4.332;2022-10-17T08:18:14;16.13;;;10.20;;
25581;SDS011;13462;50.764;4.332;2022-10-17T08:20:42;18.15;;;9.98;;
25581;SDS011;13462;50.764;4.332;2022-10-17T08:23:08;18.00;;;10.25;;
25581;SDS011;13462;50.764;4.332;2022-10-17T08:25:36;18.73;;;10.50;;
25581;SDS011;13462;50.764;4.332;2022-10-17T08:28:02;18.92;;;11.10;;
25581;SDS011;13462;50.764;4.332;2022-10-17T08:30:28;13.85;;;11.27;;
25581;SDS011;13462;50.764;4.332;2022-10-17T08:32:54;20.48;;;10.38;;
25581;SDS011;13462;50.764;4.332;2022-10-17T08:35:20;15.60;;;10.43;;
25581;SDS011;13462;50.764;4.332;2022-10-17T08:37:46;12.27;;;9.88;;
25581;SDS011;13462;50.764;4.332;2022-10-17T08:40:22;19.58;;;11.15;;
25581;SDS011;13462;50.764;4.332;2022-10-17T08:45:55;14.95;;;10.50;;
25581;SDS011;13462;50.764;4.332;2022-10-17T08:48:24;15.80;;;10.38;;
25581;SDS011;13462;50.764;4.332;2022-10-17T08:50:58;14.05;;;10.07;;
25581;SDS011;13462;50.764;4.332;2022-10-17T08:53:32;13.85;;;9.95;;
25581;SDS011;13462;50.764;4.332;2022-10-17T08:56:12;22.10;;;10.85;;
25581;SDS011;13462;50.764;4.332;2022-10-17T08:58:49;24.45;;;11.45;;
25581;SDS011;13462;50.764;4.332;2022-10-17T09:09:43;18.13;;;11.18;;
25581;SDS011;13462;50.764;4.332;2022-10-17T09:20:26;15.35;;;10.25;;
25581;SDS011;13462;50.764;4.332;2022-10-17T09:22:57;20.75;;;10.88;;
25581;SDS011;13462;50.764;4.332;2022-10-17T09:25:23;12.52;;;10.70;;
25581;SDS011;13462;50.764;4.332;2022-10-17T09:27:51;19.92;;;11.18;;
25581;SDS011;13462;50.764;4.332;2022-10-17T09:30:37;14.50;;;10.27;;
25581;SDS011;13462;50.764;4.332;2022-10-17T09:35:43;16.50;;;10.20;;
25581;SDS011;13462;50.764;4.332;2022-10-17T09:38:17;16.73;;;9.82;;
25581;SDS011;13462;50.764;4.332;2022-10-17T09:40:50;14.95;;;9.98;;
25581;SDS011;13462;50.764;4.332;2022-10-17T09:43:20;11.77;;;9.38;;
25581;SDS011;13462;50.764;4.332;2022-10-17T09:48:26;16.13;;;8.35;;
25581;SDS011;13462;50.764;4.332;2022-10-17T09:50:57;15.13;;;9.68;;
25581;SDS011;13462;50.764;4.332;2022-10-17T09:53:26;15.20;;;9.77;;
25581;SDS011;13462;50.764;4.332;2022-10-17T09:55:56;12.38;;;9.02;;
25581;SDS011;13462;50.764;4.332;2022-10-17T09:58:58;11.85;;;9.23;;
25581;SDS011;13462;50.764;4.332;2022-10-17T10:01:27;17.88;;;9.63;;
25581;SDS011;13462;50.764;4.332;2022-10-17T10:07:02;12.73;;;8.80;;
25581;SDS011;13462;50.764;4.332;2022-10-17T10:09:30;13.50;;;8.35;;
25581;SDS011;13462;50.764;4.332;2022-10-17T10:11:58;15.10;;;9.23;;
25581;SDS011;13462;50.764;4.332;2022-10-17T10:14:29;15.25;;;9.40;;
25581;SDS011;13462;50.764;4.332;2022-10-17T10:16:57;16.35;;;9.23;;
25581;SDS011;13462;50.764;4.332;2022-10-17T10:22:16;14.43;;;8.77;;
25581;SDS011;13462;50.764;4.332;2022-10-17T10:24:41;10.68;;;8.65;;
25581;SDS011;13462;50.764;4.332;2022-10-17T10:27:11;17.25;;;9.13;;
25581;SDS011;13462;50.764;4.332;2022-10-17T10:29:40;12.52;;;9.43;;
25581;SDS011;13462;50.764;4.332;2022-10-17T10:32:29;14.18;;;8.52;;
25581;SDS011;13462;50.764;4.332;2022-10-17T10:37:50;11.32;;;8.35;;
25581;SDS011;13462;50.764;4.332;2022-10-17T10:42:59;15.10;;;8.27;;
25581;SDS011;13462;50.764;4.332;2022-10-17T10:45:26;11.35;;;8.23;;
25581;SDS011;13462;50.764;4.332;2022-10-17T10:50:29;15.00;;;8.45;;
25581;SDS011;13462;50.764;4.332;2022-10-17T10:55:58;13.25;;;8.23;;
25581;SDS011;13462;50.764;4.332;2022-10-17T11:02:09;12.75;;;9.05;;
25581;SDS011;13462;50.764;4.332;2022-10-17T11:05:03;12.65;;;8.88;;
25581;SDS011;13462;50.764;4.332;2022-10-17T11:07:45;15.40;;;8.10;;
25581;SDS011;13462;50.764;4.332;2022-10-17T11:13:18;10.90;;;8.57;;
25581;SDS011;13462;50.764;4.332;2022-10-17T11:16:09;11.02;;;8.25;;
25581;SDS011;13462;50.764;4.332;2022-10-17T11:19:30;15.93;;;8.20;;
25581;SDS011;13462;50.764;4.332;2022-10-17T11:21:46;18.35;;;9.13;;
25581;SDS011;13462;50.764;4.332;2022-10-17T11:26:57;16.15;;;8.48;;
25581;SDS011;13462;50.764;4.332;2022-10-17T11:29:27;16.88;;;8.80;;
25581;SDS011;13462;50.764;4.332;2022-10-17T11:31:55;17.38;;;8.63;;
25581;SDS011;13462;50.764;4.332;2022-10-17T11:34:24;17.45;;;9.50;;
25581;SDS011;13462;50.764;4.332;2022-10-17T11:36:53;15.82;;;9.82;;
25581;SDS011;13462;50.764;4.332;2022-10-17T11:42:01;14.55;;;9.98;;
25581;SDS011;13462;50.764;4.332;2022-10-17T11:44:35;14.65;;;10.32;;
25581;SDS011;13462;50.764;4.332;2022-10-17T11:47:16;16.00;;;9.70;;
25581;SDS011;13462;50.764;4.332;2022-10-17T11:50:28;14.68;;;8.82;;
25581;SDS011;13462;50.764;4.332;2022-10-17T11:53:04;11.23;;;9.27;;
25581;SDS011;13462;50.764;4.332;2022-10-17T11:55:35;15.48;;;9.40;;
25581;SDS011;13462;50.764;4.332;2022-10-17T12:00:57;19.67;;;9.35;;
25581;SDS011;13462;50.764;4.332;2022-10-17T12:11:52;13.95;;;9.40;;
25581;SDS011;13462;50.764;4.332;2022-10-17T12:14:42;15.68;;;10.50;;
25581;SDS011;13462;50.764;4.332;2022-10-17T12:22:49;15.07;;;10.00;;
25581;SDS011;13462;50.764;4.332;2022-10-17T12:25:18;13.45;;;9.60;;
25581;SDS011;13462;50.764;4.332;2022-10-17T12:27:46;16.70;;;9.75;;
25581;SDS011;13462;50.764;4.332;2022-10-17T12:30:15;16.88;;;11.18;;
25581;SDS011;13462;50.764;4.332;2022-10-17T12:35:36;17.83;;;11.27;;
25581;SDS011;13462;50.764;4.332;2022-10-17T12:38:18;19.20;;;11.73;;
25581;SDS011;13462;50.764;4.332;2022-10-17T12:45:55;15.60;;;11.88;;
25581;SDS011;13462;50.764;4.332;2022-10-17T12:51:13;13.10;;;11.13;;
25581;SDS011;13462;50.764;4.332;2022-10-17T12:56:28;16.77;;;11.77;;
25581;SDS011;13462;50.764;4.332;2022-10-17T12:59:07;13.50;;;10.93;;
25581;SDS011;13462;50.764;4.332;2022-10-17T13:01:37;13.65;;;10.95;;
25581;SDS011;13462;50.764;4.332;2022-10-17T13:04:08;13.32;;;11.68;;
25581;SDS011;13462;50.764;4.332;2022-10-17T13:06:37;25.20;;;11.48;;
25581;SDS011;13462;50.764;4.332;2022-10-17T13:09:21;15.25;;;11.25;;
25581;SDS011;13462;50.764;4.332;2022-10-17T13:11:51;15.98;;;10.50;;
25581;SDS011;13462;50.764;4.332;2022-10-17T13:14:19;13.23;;;10.68;;
25581;SDS011;13462;50.764;4.332;2022-10-17T13:16:50;16.45;;;10.25;;
25581;SDS011;13462;50.764;4.332;2022-10-17T13:19:17;15.25;;;10.63;;
25581;SDS011;13462;50.764;4.332;2022-10-17T13:21:54;16.42;;;9.43;;
25581;SDS011;13462;50.764;4.332;2022-10-17T13:26:57;11.88;;;8.73;;
25581;SDS011;13462;50.764;4.332;2022-10-17T13:29:24;11.07;;;8.75;;
25581;SDS011;13462;50.764;4.332;2022-10-17T13:31:53;13.30;;;8.57;;
25581;SDS011;13462;50.764;4.332;2022-10-17T13:34:23;11.98;;;8.55;;
25581;SDS011;13462;50.764;4.332;2022-10-17T13:36:51;11.60;;;8.13;;
25581;SDS011;13462;50.764;4.332;2022-10-17T13:39:26;11.82;;;7.78;;
25581;SDS011;13462;50.764;4.332;2022-10-17T13:41:54;10.27;;;7.93;;
25581;SDS011;13462;50.764;4.332;2022-10-17T13:44:25;10.80;;;8.20;;
25581;SDS011;13462;50.764;4.332;2022-10-17T13:46:52;7.70;;;6.83;;
25581;SDS011;13462;50.764;4.332;2022-10-17T13:49:24;10.82;;;7.53;;
25581;SDS011;13462;50.764;4.332;2022-10-17T13:52:13;8.15;;;7.25;;
25581;SDS011;13462;50.764;4.332;2022-10-17T13:54:43;10.05;;;6.75;;
25581;SDS011;13462;50.764;4.332;2022-10-17T13:57:18;8.30;;;5.93;;
25581;SDS011;13462;50.764;4.332;2022-10-17T13:59:46;7.97;;;5.40;;
25581;SDS011;13462;50.764;4.332;2022-10-17T14:02:24;11.20;;;5.30;;
25581;SDS011;13462;50.764;4.332;2022-10-17T14:04:59;8.02;;;5.68;;
25581;SDS011;13462;50.764;4.332;2022-10-17T14:07:29;8.20;;;5.60;;
25581;SDS011;13462;50.764;4.332;2022-10-17T14:12:42;11.45;;;5.38;;
25581;SDS011;13462;50.764;4.332;2022-10-17T14:15:08;7.95;;;5.28;;
25581;SDS011;13462;50.764;4.332;2022-10-17T14:17:39;7.13;;;5.40;;
25581;SDS011;13462;50.764;4.332;2022-10-17T14:20:06;6.97;;;4.78;;
25581;SDS011;13462;50.764;4.332;2022-10-17T14:22:34;9.75;;;5.88;;
25581;SDS011;13462;50.764;4.332;2022-10-17T14:25:01;9.60;;;4.97;;
25581;SDS011;13462;50.764;4.332;2022-10-17T14:30:04;8.35;;;5.45;;
25581;SDS011;13462;50.764;4.332;2022-10-17T14:32:35;9.82;;;4.95;;
25581;SDS011;13462;50.764;4.332;2022-10-17T14:35:02;6.93;;;5.35;;
25581;SDS011;13462;50.764;4.332;2022-10-17T14:37:42;6.18;;;5.10;;
25581;SDS011;13462;50.764;4.332;2022-10-17T14:40:14;8.45;;;5.57;;
25581;SDS011;13462;50.764;4.332;2022-10-17T14:42:47;5.93;;;4.75;;
25581;SDS011;13462;50.764;4.332;2022-10-17T14:45:18;7.57;;;5.43;;
25581;SDS011;13462;50.764;4.332;2022-10-17T14:47:50;7.70;;;5.28;;
25581;SDS011;13462;50.764;4.332;2022-10-17T14:50:19;7.03;;;4.93;;
25581;SDS011;13462;50.764;4.332;2022-10-17T14:53:04;8.38;;;4.93;;
25581;SDS011;13462;50.764;4.332;2022-10-17T14:55:37;7.40;;;4.95;;
25581;SDS011;13462;50.764;4.332;2022-10-17T15:01:02;7.57;;;4.45;;
25581;SDS011;13462;50.764;4.332;2022-10-17T15:03:27;6.47;;;4.60;;
25581;SDS011;13462;50.764;4.332;2022-10-17T15:05:53;6.22;;;4.32;;
25581;SDS011;13462;50.764;4.332;2022-10-17T15:08:20;8.43;;;4.65;;
25581;SDS011;13462;50.764;4.332;2022-10-17T15:10:47;5.90;;;4.07;;
25581;SDS011;13462;50.764;4.332;2022-10-17T15:13:13;6.57;;;4.38;;
25581;SDS011;13462;50.764;4.332;2022-10-17T15:15:40;5.63;;;3.88;;
25581;SDS011;13462;50.764;4.332;2022-10-17T15:18:06;9.98;;;4.18;;
25581;SDS011;13462;50.764;4.332;2022-10-17T15:20:38;7.32;;;4.38;;
25581;SDS011;13462;50.764;4.332;2022-10-17T15:23:04;7.95;;;3.80;;
25581;SDS011;13462;50.764;4.332;2022-10-17T15:25:30;17.25;;;4.53;;
25581;SDS011;13462;50.764;4.332;2022-10-17T15:27:56;5.40;;;3.70;;
25581;SDS011;13462;50.764;4.332;2022-10-17T15:30:24;5.30;;;4.13;;
25581;SDS011;13462;50.764;4.332;2022-10-17T15:32:53;5.00;;;3.67;;
25581;SDS011;13462;50.764;4.332;2022-10-17T15:35:20;8.65;;;4.03;;
25581;SDS011;13462;50.764;4.332;2022-10-17T15:37:46;9.38;;;5.53;;
25581;SDS011;13462;50.764;4.332;2022-10-17T15:40:15;13.57;;;5.90;;
25581;SDS011;13462;50.764;4.332;2022-10-17T15:42:46;8.55;;;6.03;;
25581;SDS011;13462;50.764;4.332;2022-10-17T15:45:13;7.05;;;5.07;;
25581;SDS011;13462;50.764;4.332;2022-10-17T15:47:40;10.20;;;5.72;;
25581;SDS011;13462;50.764;4.332;2022-10-17T15:50:10;9.18;;;5.60;;
25581;SDS011;13462;50.764;4.332;2022-10-17T15:52:39;10.48;;;6.10;;
25581;SDS011;13462;50.764;4.332;2022-10-17T15:55:05;8.07;;;4.88;;
25581;SDS011;13462;50.764;4.332;2022-10-17T15:57:33;5.72;;;5.15;;
25581;SDS011;13462;50.764;4.332;2022-10-17T16:00:03;7.25;;;5.65;;
25581;SDS011;13462;50.764;4.332;2022-10-17T16:02:31;8.38;;;5.65;;
25581;SDS011;13462;50.764;4.332;2022-10-17T16:04:57;12.05;;;6.50;;
25581;SDS011;13462;50.764;4.332;2022-10-17T16:07:23;9.05;;;6.00;;
25581;SDS011;13462;50.764;4.332;2022-10-17T16:09:49;8.45;;;5.72;;
25581;SDS011;13462;50.764;4.332;2022-10-17T16:12:20;8.68;;;6.32;;
25581;SDS011;13462;50.764;4.332;2022-10-17T16:14:52;7.75;;;6.13;;
25581;SDS011;13462;50.764;4.332;2022-10-17T16:17:17;8.90;;;6.28;;
25581;SDS011;13462;50.764;4.332;2022-10-17T16:19:43;8.27;;;6.68;;
25581;SDS011;13462;50.764;4.332;2022-10-17T16:22:17;7.88;;;5.97;;
25581;SDS011;13462;50.764;4.332;2022-10-17T16:24:51;7.88;;;6.35;;
25581;SDS011;13462;50.764;4.332;2022-10-17T16:27:23;8.88;;;6.93;;
25581;SDS011;13462;50.764;4.332;2022-10-17T16:29:50;10.63;;;8.40;;
25581;SDS011;13462;50.764;4.332;2022-10-17T16:32:15;13.90;;;8.88;;
25581;SDS011;13462;50.764;4.332;2022-10-17T16:34:41;13.07;;;7.93;;
25581;SDS011;13462;50.764;4.332;2022-10-17T16:37:06;11.57;;;7.63;;
25581;SDS011;13462;50.764;4.332;2022-10-17T16:39:32;12.70;;;8.25;;
25581;SDS011;13462;50.764;4.332;2022-10-17T16:41:57;9.50;;;7.32;;
25581;SDS011;13462;50.764;4.332;2022-10-17T16:44:23;15.25;;;8.57;;
25581;SDS011;13462;50.764;4.332;2022-10-17T16:46:49;10.15;;;8.20;;
25581;SDS011;13462;50.764;4.332;2022-10-17T16:49:14;13.38;;;9.02;;
25581;SDS011;13462;50.764;4.332;2022-10-17T16:51:42;9.38;;;8.10;;
25581;SDS011;13462;50.764;4.332;2022-10-17T16:54:07;15.30;;;8.15;;
25581;SDS011;13462;50.764;4.332;2022-10-17T16:56:33;13.48;;;9.43;;
25581;SDS011;13462;50.764;4.332;2022-10-17T16:58:59;11.43;;;8.90;;
25581;SDS011;13462;50.764;4.332;2022-10-17T17:01:25;12.85;;;9.20;;